Time;durP1;ratioP1;P1;durP2;ratioP2;P2;SDS_P1;SDS_P2;PMS_P1;PMS_P2;Temp;Humidity;BMP_temperature;BMP_pressure;BME280_temperature;BME280_humidity;BME280_pressure;Samples;Min_cycle;Max_cycle;Signal;HPM_P1;HPM_P2
2023/12/20 00:01:49;;;;;;;19.60;12.50;;;;;;;4.99;93.37;99620.23;134252;1298;22904;-73
2023/12/20 00:04:53;;;;;;;15.90;11.00;;;;;;;4.99;93.59;99605.52;134072;1299;22413;-73
2023/12/20 00:07:54;;;;;;;;;;;;;;;4.98;93.78;99600.64;134264;1298;22480;-73
2023/12/20 00:10:55;;;;;;;17.50;10.60;;;;;;;4.99;94.01;99604.08;134224;1298;22277;-73
2023/12/20 00:13:59;;;;;;;13.80;10.00;;;;;;;4.99;93.95;99598.15;134254;1301;22405;-73
2023/12/20 00:17:00;;;;;;;16.10;10.10;;;;;;;4.99;94.01;99595.85;134220;1302;22283;-73
2023/12/20 00:20:00;;;;;;;;;;;;;;;5.00;93.98;99597.61;134227;1298;23175;-74
2023/12/20 00:23:02;;;;;;;14.70;9.30;;;;;;;5.01;94.02;99606.49;134248;1298;22357;-73
2023/12/20 00:26:03;;;;;;;18.00;11.50;;;;;;;5.01;94.14;99608.10;134133;1304;22404;-73
2023/12/20 00:29:04;;;;;;;17.40;10.10;;;;;;;5.01;94.21;99608.44;134236;1298;22432;-73
2023/12/20 00:32:05;;;;;;;15.10;10.60;;;;;;;5.01;94.27;99594.61;134255;1298;22244;-73
2023/12/20 00:35:18;;;;;;;17.00;11.40;;;;;;;5.01;94.21;99592.98;134241;1304;22353;-73
2023/12/20 00:38:19;;;;;;;15.30;10.40;;;;;;;5.01;94.21;99598.08;134261;1298;22284;-73
2023/12/20 00:41:20;;;;;;;14.80;10.50;;;;;;;5.02;94.23;99597.81;134246;1303;22356;-73
2023/12/20 00:44:23;;;;;;;;;;;;;;;5.03;94.53;99595.84;134209;1304;23335;-73
2023/12/20 00:47:29;;;;;;;15.80;10.70;;;;;;;5.01;94.51;99591.77;134242;1301;22393;-72
2023/12/20 00:50:30;;;;;;;17.40;11.10;;;;;;;5.01;94.45;99583.89;134242;1298;23041;-73
2023/12/20 00:53:30;;;;;;;18.80;12.40;;;;;;;5.00;94.68;99582.39;134229;1304;22485;-73
2023/12/20 00:56:31;;;;;;;;;;;;;;;4.99;94.87;99587.02;134246;1302;24765;-73
2023/12/20 00:59:32;;;;;;;19.20;12.80;;;;;;;4.98;94.62;99583.15;134266;1298;22242;-73
2023/12/20 01:02:37;;;;;;;17.30;12.60;;;;;;;4.97;94.73;99581.98;134224;1301;23406;-73
2023/12/20 01:05:58;;;;;;;19.20;12.70;;;;;;;4.96;95.15;99588.23;134253;1304;22438;-73
2023/12/20 01:08:59;;;;;;;20.70;13.50;;;;;;;4.93;95.09;99587.06;134226;1304;22272;-73
2023/12/20 01:11:59;;;;;;;;;;;;;;;4.91;95.61;99579.52;134256;1304;23157;-73
2023/12/20 01:15:00;;;;;;;18.90;12.90;;;;;;;4.89;95.48;99578.14;134255;1301;22411;-73
2023/12/20 01:18:01;;;;;;;23.20;13.70;;;;;;;4.88;95.70;99576.13;134245;1298;22895;-73
2023/12/20 01:21:03;;;;;;;28.10;14.60;;;;;;;4.88;95.38;99573.71;134253;1299;22362;-73
2023/12/20 01:24:07;;;;;;;26.70;14.20;;;;;;;4.87;95.65;99571.48;133959;1304;22477;-73
2023/12/20 01:27:08;;;;;;;20.90;13.80;;;;;;;4.87;95.62;99566.25;134260;1301;22184;-72
2023/12/20 01:30:21;;;;;;;21.20;13.70;;;;;;;4.86;95.73;99559.11;134253;1304;22233;-72
2023/12/20 01:33:22;;;;;;;22.50;13.50;;;;;;;4.87;95.66;99558.92;134240;1304;23035;-73
2023/12/20 01:36:23;;;;;;;;;;;;;;;4.87;95.92;99560.48;134257;1301;22466;-73
2023/12/20 01:39:24;;;;;;;26.20;13.60;;;;;;;4.85;96.05;99553.70;134272;1304;22535;-73
2023/12/20 01:42:24;;;;;;;;;;;;;;;4.82;96.47;99545.48;134256;1304;23082;-73
2023/12/20 01:45:25;;;;;;;15.80;11.50;;;;;;;4.82;96.57;99552.33;134263;1301;22379;-73
2023/12/20 01:48:32;;;;;;;15.70;11.00;;;;;;;4.82;96.77;99538.90;134243;1298;22360;-73
2023/12/20 01:51:39;;;;;;;15.60;11.10;;;;;;;4.80;96.99;99545.84;134245;1304;22422;-72
2023/12/20 01:55:12;;;;;;;14.60;10.60;;;;;;;4.81;97.11;99543.54;134278;1295;22274;-73
2023/12/20 01:58:13;;;;;;;12.90;10.20;;;;;;;4.80;97.42;99534.31;134236;1304;22262;-73
2023/12/20 02:01:15;;;;;;;13.80;9.30;;;;;;;4.81;97.54;99533.40;134237;1304;23114;-73
2023/12/20 02:04:17;;;;;;;13.30;9.90;;;;;;;4.81;97.68;99524.38;134260;1304;22453;-73
2023/12/20 02:07:19;;;;;;;14.40;11.00;;;;;;;4.83;97.67;99520.58;134245;1299;23445;-73
2023/12/20 02:10:41;;;;;;;;;;;;;;;;;;;;;
2023/12/20 02:14:07;;;;;;;;;;;;;;;;;;;;;
2023/12/20 02:17:08;;;;;;;15.80;11.00;;;;;;;4.85;98.25;99522.15;134234;1297;22465;-73
2023/12/20 02:20:09;;;;;;;;;;;;;;;4.86;98.18;99508.89;134292;1304;22469;-73
2023/12/20 02:23:10;;;;;;;14.90;10.70;;;;;;;4.86;98.17;99507.08;134265;1297;22419;-73
2023/12/20 02:26:13;;;;;;;16.00;10.80;;;;;;;4.86;98.55;99513.55;134271;1301;22312;-73
2023/12/20 02:29:13;;;;;;;13.60;8.60;;;;;;;4.86;99.03;99513.09;134253;1304;22418;-73
2023/12/20 02:32:30;;;;;;;11.80;8.60;;;;;;;4.85;99.52;99509.80;134262;1298;22423;-73
2023/12/20 02:35:31;;;;;;;12.30;9.10;;;;;;;4.84;99.35;99494.32;134250;1301;22457;-73
2023/12/20 02:38:31;;;;;;;;;;;;;;;4.85;99.54;99490.69;134290;1301;22581;-72
2023/12/20 02:41:42;;;;;;;;;;;;;;;;;;;;;
2023/12/20 02:45:02;;;;;;;9.00;6.80;;;;;;;4.85;99.32;99497.23;134279;1298;22368;-73
2023/12/20 02:48:14;;;;;;;8.80;6.70;;;;;;;4.84;99.51;99492.39;134256;1304;23326;-73
2023/12/20 02:51:18;;;;;;;7.60;5.60;;;;;;;4.85;99.29;99491.61;134251;1299;22352;-73
2023/12/20 02:54:19;;;;;;;;;;;;;;;4.85;99.45;99490.23;134273;1301;22464;-73
2023/12/20 02:57:43;;;;;;;6.20;4.90;;;;;;;4.85;98.86;99492.36;134255;1298;22380;-73
2023/12/20 03:00:46;;;;;;;6.70;5.00;;;;;;;4.83;99.14;99489.86;134269;1304;22429;-73
2023/12/20 03:03:50;;;;;;;6.10;4.70;;;;;;;4.81;99.20;99488.65;134255;1304;23152;-73
2023/12/20 03:06:51;;;;;;;5.90;4.80;;;;;;;4.79;98.75;99481.86;134273;1298;23248;-73
2023/12/20 03:09:52;;;;;;;5.10;4.00;;;;;;;4.77;98.96;99475.17;134249;1304;23058;-73
2023/12/20 03:12:52;;;;;;;;;;;;;;;4.75;98.99;99471.74;134279;1304;22464;-73
2023/12/20 03:15:53;;;;;;;5.70;4.10;;;;;;;4.71;99.12;99471.38;134236;1298;22287;-73
2023/12/20 03:18:53;;;;;;;7.40;4.00;;;;;;;4.69;98.93;99473.88;134248;1298;23434;-73
2023/12/20 03:21:54;;;;;;;4.10;3.60;;;;;;;4.67;99.08;99475.63;134274;1288;22271;-73
2023/12/20 03:24:55;;;;;;;4.20;3.30;;;;;;;4.66;98.91;99477.82;134267;1298;22424;-73
2023/12/20 03:27:57;;;;;;;3.70;3.20;;;;;;;4.65;98.93;99474.95;134246;1301;22284;-73
2023/12/20 03:31:02;;;;;;;3.20;2.90;;;;;;;4.63;99.27;99476.17;134241;1304;22416;-73
2023/12/20 03:34:06;;;;;;;4.30;3.50;;;;;;;4.61;99.10;99479.86;134254;1301;22459;-72
2023/12/20 03:37:18;;;;;;;3.50;3.20;;;;;;;4.59;99.34;99484.39;134276;1298;22263;-72
2023/12/20 03:40:28;;;;;;;4.30;3.90;;;;;;;4.58;99.29;99482.83;134262;1298;22350;-72
2023/12/20 03:43:29;;;;;;;4.70;4.20;;;;;;;4.56;99.64;99485.41;134266;1298;22203;-72
2023/12/20 03:46:30;;;;;;;3.70;3.40;;;;;;;4.54;99.68;99479.64;134271;1304;22488;-72
2023/12/20 03:49:33;;;;;;;5.80;4.00;;;;;;;4.54;99.44;99485.66;134243;1301;22295;-72
2023/12/20 03:52:34;;;;;;;5.00;3.80;;;;;;;4.52;99.91;99489.84;134262;1298;22463;-72
2023/12/20 03:55:40;;;;;;;;;;;;;;;4.51;99.74;99490.77;134281;1304;23165;-72
2023/12/20 03:58:41;;;;;;;4.30;3.30;;;;;;;4.50;99.67;99489.27;134248;1304;22456;-72
2023/12/20 04:01:47;;;;;;;;;;;;;;;4.50;99.73;99485.80;134247;1305;22512;-72
2023/12/20 04:04:54;;;;;;;5.10;3.50;;;;;;;4.47;100.00;99487.11;134270;1305;22162;-73
2023/12/20 04:08:15;;;;;;;3.30;2.70;;;;;;;4.45;99.66;99486.77;134252;1298;22441;-72
2023/12/20 04:11:25;;;;;;;4.60;3.10;;;;;;;4.44;99.93;99484.04;134245;1304;22257;-72
2023/12/20 04:14:26;;;;;;;5.50;3.80;;;;;;;4.42;99.88;99486.31;134256;1298;23017;-72
2023/12/20 04:17:26;;;;;;;;;;;;;;;4.41;99.89;99486.93;134267;1301;22468;-72
2023/12/20 04:20:27;;;;;;;3.20;2.80;;;;;;;4.39;99.92;99488.59;134268;1304;22515;-73
2023/12/20 04:23:28;;;;;;;;;;;;;;;4.36;99.99;99485.67;134284;1298;23099;-72
2023/12/20 04:26:34;;;;;;;2.30;2.00;;;;;;;4.33;99.95;99481.90;134073;1298;22455;-72
2023/12/20 04:29:38;;;;;;;4.00;2.60;;;;;;;4.31;99.96;99480.52;134258;1304;22251;-72
2023/12/20 04:32:39;;;;;;;;;;;;;;;4.28;100.00;99485.21;134265;1304;22483;-72
2023/12/20 04:35:47;;;;;;;2.20;2.00;;;;;;;4.25;100.00;99487.89;134262;1304;22876;-72
2023/12/20 04:38:48;;;;;;;2.20;2.00;;;;;;;4.22;100.00;99488.54;134267;1298;23247;-72
2023/12/20 04:41:52;;;;;;;3.50;2.40;;;;;;;4.21;100.00;99487.80;134269;1298;22354;-72
2023/12/20 04:44:52;;;;;;;3.10;2.10;;;;;;;4.20;100.00;99486.16;134257;1304;22370;-72
2023/12/20 04:47:55;;;;;;;2.70;2.20;;;;;;;4.18;100.00;99482.11;134265;1304;22373;-72
2023/12/20 04:51:05;;;;;;;3.40;2.30;;;;;;;4.17;100.00;99480.28;134252;1304;23543;-72
2023/12/20 04:54:06;;;;;;;2.10;1.80;;;;;;;4.17;100.00;99485.04;134276;1302;22440;-72
2023/12/20 04:57:07;;;;;;;2.40;2.20;;;;;;;4.16;100.00;99476.66;134257;1304;22344;-72
2023/12/20 05:00:08;;;;;;;;;;;;;;;4.15;100.00;99473.81;134285;1299;24558;-72
2023/12/20 05:03:09;;;;;;;;;;;;;;;4.12;100.00;99471.77;134279;1305;22468;-72
2023/12/20 05:06:10;;;;;;;1.70;1.60;;;;;;;4.10;100.00;99467.08;134248;1304;22484;-72
2023/12/20 05:09:26;;;;;;;2.80;2.10;;;;;;;4.09;100.00;99470.38;134277;1298;22381;-72
2023/12/20 05:12:29;;;;;;;2.40;1.90;;;;;;;4.08;100.00;99467.08;134258;1298;23586;-72
2023/12/20 05:15:30;;;;;;;2.30;2.10;;;;;;;4.06;100.00;99463.95;134282;1298;22427;-72
2023/12/20 05:18:31;;;;;;;2.10;1.90;;;;;;;4.03;100.00;99459.42;134054;1304;260976;-72
2023/12/20 05:21:35;;;;;;;;;;;;;;;4.01;100.00;99458.48;134298;1298;22466;-72
2023/12/20 05:24:41;;;;;;;2.00;1.90;;;;;;;3.99;100.00;99459.46;134281;1298;23186;-72
2023/12/20 05:27:42;;;;;;;2.60;2.20;;;;;;;3.98;100.00;99468.34;134255;1304;22461;-73
2023/12/20 05:30:43;;;;;;;;;;;;;;;3.97;100.00;99467.20;134248;1301;22554;-72
2023/12/20 05:33:54;;;;;;;;;;;;;;;;;;;;;
2023/12/20 05:37:07;;;;;;;3.60;2.80;;;;;;;3.96;100.00;99464.64;134244;1304;22402;-72
2023/12/20 05:40:10;;;;;;;3.90;2.80;;;;;;;3.96;100.00;99468.66;134205;1299;22540;-72
2023/12/20 05:43:13;;;;;;;3.50;2.50;;;;;;;3.97;100.00;99467.41;134289;1304;23207;-72
2023/12/20 05:46:14;;;;;;;3.20;2.60;;;;;;;3.97;100.00;99470.21;134239;1298;22304;-74
2023/12/20 05:49:15;;;;;;;;;;;;;;;3.96;100.00;99474.09;134307;1298;22460;-77
2023/12/20 05:52:39;;;;;;;3.20;2.50;;;;;;;3.96;100.00;99474.63;134256;1299;22334;-76
2023/12/20 05:55:40;;;;;;;4.00;2.70;;;;;;;3.95;100.00;99466.69;134281;1298;22360;-75
2023/12/20 05:58:43;;;;;;;;;;;;;;;3.96;100.00;99468.73;134217;1304;22491;-75
2023/12/20 06:01:55;;;;;;;4.80;2.80;;;;;;;3.95;100.00;99467.77;134244;1297;22716;-78
2023/12/20 06:04:59;;;;;;;4.90;2.60;;;;;;;3.95;100.00;99470.95;134282;1298;22378;-72
2023/12/20 06:08:04;;;;;;;5.50;2.80;;;;;;;3.94;100.00;99468.05;134039;1301;22399;-73
2023/12/20 06:11:17;;;;;;;3.50;2.70;;;;;;;3.94;100.00;99464.54;134230;1298;23446;-72
2023/12/20 06:14:24;;;;;;;4.00;3.40;;;;;;;3.94;100.00;99461.72;134283;1298;22463;-72
2023/12/20 06:17:48;;;;;;;4.70;3.10;;;;;;;3.94;100.00;99461.92;134239;1298;22394;-72
2023/12/20 06:21:12;;;;;;;5.60;3.40;;;;;;;3.93;100.00;99465.50;134256;1297;22359;-72
2023/12/20 06:24:13;;;;;;;4.20;3.40;;;;;;;3.94;100.00;99465.04;133891;1304;23581;-72
2023/12/20 06:27:17;;;;;;;4.60;3.00;;;;;;;3.94;100.00;99465.57;134242;1304;22386;-71
2023/12/20 06:30:18;;;;;;;4.80;3.10;;;;;;;3.94;100.00;99466.45;134258;1298;23511;-72
2023/12/20 06:33:19;;;;;;;;;;;;;;;3.93;100.00;99466.75;134112;1301;22488;-72
2023/12/20 06:36:20;;;;;;;4.30;3.00;;;;;;;3.92;100.00;99463.29;134249;1298;23097;-72
2023/12/20 06:39:21;;;;;;;5.50;4.00;;;;;;;3.91;100.00;99465.31;134286;1298;23291;-71
2023/12/20 06:42:22;;;;;;;5.80;3.90;;;;;;;3.91;100.00;99467.04;134256;1294;22418;-72
2023/12/20 06:45:22;;;;;;;11.10;4.10;;;;;;;3.91;100.00;99466.93;134303;1304;22261;-72
2023/12/20 06:48:27;;;;;;;4.70;3.60;;;;;;;3.89;100.00;99470.38;134268;1304;22365;-72
2023/12/20 06:51:28;;;;;;;6.00;3.90;;;;;;;3.89;100.00;99469.38;134100;1296;22235;-71
2023/12/20 06:54:29;;;;;;;;;;;;;;;3.88;100.00;99471.03;134293;1304;23227;-72
2023/12/20 06:57:30;;;;;;;6.60;3.60;;;;;;;3.87;100.00;99476.73;134290;1298;22266;-72
2023/12/20 07:00:32;;;;;;;3.80;2.80;;;;;;;3.86;100.00;99471.89;134268;1298;23148;-72
2023/12/20 07:03:33;;;;;;;3.90;3.00;;;;;;;3.86;100.00;99471.38;134035;1298;22124;-72
2023/12/20 07:06:34;;;;;;;3.80;3.10;;;;;;;3.86;100.00;99471.77;134291;1304;22388;-71
2023/12/20 07:09:35;;;;;;;4.10;3.40;;;;;;;3.85;100.00;99480.45;134079;1300;22522;-72
2023/12/20 07:12:35;;;;;;;;;;;;;;;3.84;100.00;99483.83;134343;1301;23315;-72
2023/12/20 07:15:37;;;;;;;4.10;3.40;;;;;;;3.83;100.00;99484.96;134279;1298;23252;-72
2023/12/20 07:18:37;;;;;;;4.30;3.40;;;;;;;3.83;100.00;99484.97;134331;1298;22377;-72
2023/12/20 07:21:38;;;;;;;;;;;;;;;3.84;100.00;99486.08;134315;1295;22477;-72
2023/12/20 07:24:39;;;;;;;4.20;3.10;;;;;;;3.84;100.00;99489.55;134327;1298;23085;-72
2023/12/20 07:27:40;;;;;;;4.10;3.10;;;;;;;3.84;100.00;99491.54;134302;1304;22367;-72
2023/12/20 07:30:47;;;;;;;4.90;3.30;;;;;;;3.84;100.00;99493.61;134352;1304;22375;-72
2023/12/20 07:33:48;;;;;;;3.40;2.70;;;;;;;3.84;100.00;99496.08;134300;1289;22356;-72
2023/12/20 07:36:49;;;;;;;;;;;;;;;3.84;100.00;99490.95;134304;1304;22464;-72
2023/12/20 07:39:50;;;;;;;3.60;2.60;;;;;;;3.85;100.00;99493.02;134356;1297;22457;-72
2023/12/20 07:42:51;;;;;;;4.00;2.60;;;;;;;3.86;100.00;99495.21;134389;1298;22415;-72
2023/12/20 07:45:51;;;;;;;;;;;;;;;3.86;100.00;99495.31;134305;1301;23105;-72
2023/12/20 07:48:52;;;;;;;3.50;2.80;;;;;;;3.87;100.00;99496.84;134297;1301;22437;-72
2023/12/20 07:51:53;;;;;;;7.20;2.50;;;;;;;3.87;100.00;99498.94;134292;1298;22914;-72
2023/12/20 07:54:54;;;;;;;;;;;;;;;3.87;100.00;99499.63;134300;1304;23226;-72
2023/12/20 07:58:01;;;;;;;3.60;3.20;;;;;;;3.88;100.00;99504.10;134338;1295;22387;-72
2023/12/20 08:01:04;;;;;;;4.30;3.00;;;;;;;3.88;100.00;99503.38;134390;1301;23099;-72
2023/12/20 08:04:04;;;;;;;3.60;2.70;;;;;;;3.88;100.00;99502.17;134381;1304;22435;-72
2023/12/20 08:07:05;;;;;;;5.00;2.80;;;;;;;3.89;100.00;99503.63;134187;1298;22274;-72
2023/12/20 08:10:06;;;;;;;;;;;;;;;3.89;100.00;99502.39;134206;1298;23348;-72
2023/12/20 08:13:08;;;;;;;5.90;3.40;;;;;;;3.89;100.00;99502.05;134213;1298;22980;-72
2023/12/20 08:16:15;;;;;;;4.80;3.30;;;;;;;3.87;100.00;99498.55;134190;1298;22347;-72
2023/12/20 08:19:22;;;;;;;5.10;2.40;;;;;;;3.87;100.00;99495.14;134119;1298;22380;-72
2023/12/20 08:22:28;;;;;;;5.60;3.00;;;;;;;3.85;100.00;99499.30;134265;1304;23496;-72
2023/12/20 08:25:29;;;;;;;6.70;2.80;;;;;;;3.86;100.00;99505.46;134152;1298;22254;-72
2023/12/20 08:28:31;;;;;;;2.90;2.20;;;;;;;3.87;100.00;99500.85;134203;1298;22498;-72
2023/12/20 08:31:32;;;;;;;4.60;2.50;;;;;;;3.86;100.00;99500.38;134188;1298;23114;-72
2023/12/20 08:34:33;;;;;;;;;;;;;;;3.88;100.00;99495.92;134274;1298;22464;-72
2023/12/20 08:38:15;;;;;;;3.50;2.90;;;;;;;3.87;100.00;99506.94;134273;1298;23192;-72
2023/12/20 08:41:17;;;;;;;7.90;3.20;;;;;;;3.86;100.00;99510.19;134289;1305;22447;-72
2023/12/20 08:44:22;;;;;;;5.70;3.40;;;;;;;3.86;100.00;99503.73;134169;1305;22465;-72
2023/12/20 08:47:26;;;;;;;3.10;2.40;;;;;;;3.87;100.00;99500.58;134276;1291;22221;-72
2023/12/20 08:50:37;;;;;;;2.90;2.50;;;;;;;3.88;100.00;99508.47;134128;1305;22387;-72
2023/12/20 08:53:41;;;;;;;;;;;;;;;3.89;100.00;99522.14;134131;1301;22495;-72
2023/12/20 08:56:50;;;;;;;3.20;2.50;;;;;;;3.90;100.00;99520.70;134196;1305;22382;-72
2023/12/20 08:59:51;;;;;;;3.40;2.30;;;;;;;3.91;100.00;99528.16;134185;1298;22397;-72
2023/12/20 09:02:54;;;;;;;;;;;;;;;3.91;100.00;99521.83;134142;1299;22485;-72
2023/12/20 09:06:06;;;;;;;3.70;2.40;;;;;;;3.92;100.00;99518.45;134205;1304;22417;-72
2023/12/20 09:09:15;;;;;;;4.60;2.70;;;;;;;3.93;100.00;99522.03;134278;1298;22353;-72
2023/12/20 09:12:47;;;;;;;;;;;;;;;;;;;;;
2023/12/20 09:15:59;;;;;;;4.00;2.80;;;;;;;3.95;100.00;99521.48;134196;1298;22236;-72
2023/12/20 09:19:00;;;;;;;6.50;2.70;;;;;;;3.95;100.00;99513.25;134102;1299;22376;-72
2023/12/20 09:22:01;;;;;;;;;;;;;;;3.96;100.00;99518.27;134161;1298;22505;-72
2023/12/20 09:25:03;;;;;;;4.40;2.90;;;;;;;3.95;100.00;99523.95;134234;1298;23004;-72
2023/12/20 09:28:04;;;;;;;3.90;2.90;;;;;;;3.96;100.00;99525.60;134262;1298;22451;-72
2023/12/20 09:31:07;;;;;;;5.90;3.60;;;;;;;3.98;100.00;99525.40;134287;1298;23075;-72
2023/12/20 09:34:08;;;;;;;6.60;3.90;;;;;;;4.00;100.00;99523.48;134290;1298;22946;-72
2023/12/20 09:37:09;;;;;;;4.80;3.10;;;;;;;4.03;100.00;99532.15;134272;1298;23115;-72
2023/12/20 09:40:21;;;;;;;;;;;;;;;4.05;100.00;99530.94;134291;1304;22560;-72
2023/12/20 09:43:24;;;;;;;4.40;2.70;;;;;;;4.05;100.00;99522.67;134268;1298;22410;-72
2023/12/20 09:46:31;;;;;;;6.00;3.40;;;;;;;4.04;100.00;99520.64;134270;1298;22459;-72
2023/12/20 09:49:47;;;;;;;4.10;3.20;;;;;;;4.03;100.00;99523.14;134287;1298;22435;-72
2023/12/20 09:52:52;;;;;;;4.70;2.80;;;;;;;4.05;100.00;99522.16;134231;1298;22398;-72
2023/12/20 09:55:53;;;;;;;7.60;3.90;;;;;;;4.04;100.00;99519.04;134254;1298;22378;-72
2023/12/20 09:58:54;;;;;;;5.00;3.20;;;;;;;4.07;100.00;99511.50;134246;1298;22357;-72
2023/12/20 10:02:00;;;;;;;;;;;;;;;4.09;100.00;99511.79;134285;1298;22482;-72
2023/12/20 10:05:08;;;;;;;3.80;2.70;;;;;;;4.12;100.00;99512.60;134252;1298;22463;-72
2023/12/20 10:08:09;;;;;;;4.80;2.90;;;;;;;4.17;100.00;99509.86;134279;1285;22366;-72
2023/12/20 10:11:28;;;;;;;;;;;;;;;;;;;;;
2023/12/20 10:14:40;;;;;;;5.50;2.70;;;;;;;4.31;100.00;99509.30;134234;1298;22427;-72
2023/12/20 10:17:49;;;;;;;3.40;2.80;;;;;;;4.33;100.00;99503.84;134284;1298;23343;-72
2023/12/20 10:20:53;;;;;;;5.10;3.40;;;;;;;4.38;100.00;99508.44;134273;1293;22975;-72
2023/12/20 10:24:00;;;;;;;4.00;2.90;;;;;;;4.42;100.00;99511.55;134285;1298;22493;-72
2023/12/20 10:27:35;;;;;;;5.80;4.10;;;;;;;4.42;100.00;99512.22;134226;1297;22375;-72
2023/12/20 10:30:39;;;;;;;5.50;3.60;;;;;;;4.43;100.00;99517.05;134010;1298;22518;-72
2023/12/20 10:33:40;;;;;;;5.50;3.70;;;;;;;4.41;100.00;99515.34;134068;1298;23110;-72
2023/12/20 10:36:46;;;;;;;5.20;3.40;;;;;;;4.39;100.00;99516.70;134256;1298;22404;-72
2023/12/20 10:39:55;;;;;;;5.30;3.50;;;;;;;4.36;100.00;99509.14;134304;1291;22390;-72
2023/12/20 10:42:58;;;;;;;12.90;6.30;;;;;;;4.34;100.00;99507.42;134134;1298;22478;-72
2023/12/20 10:45:59;;;;;;;4.40;3.60;;;;;;;4.33;100.00;99507.16;134258;1298;22394;-72
2023/12/20 10:49:03;;;;;;;6.80;4.20;;;;;;;4.36;100.00;99498.88;134118;1304;23114;-72
2023/12/20 10:52:05;;;;;;;9.90;3.80;;;;;;;4.45;100.00;99499.71;134257;1304;22355;-72
2023/12/20 10:55:32;;;;;;;6.30;4.10;;;;;;;4.60;100.00;99502.87;134064;1298;22218;-71
2023/12/20 10:58:39;;;;;;;8.80;3.70;;;;;;;4.71;100.00;99492.89;134260;1298;22264;-72
2023/12/20 11:01:42;;;;;;;5.80;3.10;;;;;;;4.69;100.00;99496.42;134236;1304;23369;-72
2023/12/20 11:05:19;;;;;;;6.00;2.80;;;;;;;4.63;99.61;99487.90;134229;1304;22306;-72
2023/12/20 11:08:39;;;;;;;5.00;2.50;;;;;;;4.56;99.41;99479.15;134256;1299;22422;-72
2023/12/20 11:11:46;;;;;;;5.30;2.90;;;;;;;4.54;98.90;99466.69;134184;1305;22427;-72
2023/12/20 11:15:16;;;;;;;;;;;;;;;;;;;;;
2023/12/20 11:18:40;;;;;;;7.30;2.90;;;;;;;4.75;99.33;99459.44;134250;1304;22282;-72
2023/12/20 11:21:44;;;;;;;5.20;2.90;;;;;;;4.82;98.87;99458.73;134257;1298;22203;-72
2023/12/20 11:24:46;;;;;;;4.60;2.70;;;;;;;4.85;98.05;99450.95;134225;1304;22166;-72
2023/12/20 11:28:11;;;;;;;5.40;3.00;;;;;;;4.87;97.78;99437.30;134215;1298;24888;-72
2023/12/20 11:31:14;;;;;;;9.10;2.30;;;;;;;4.91;97.80;99438.11;134227;1298;23018;-72
2023/12/20 11:34:17;;;;;;;6.10;2.40;;;;;;;5.00;97.73;99432.69;134244;1304;22364;-72
2023/12/20 11:37:19;;;;;;;4.90;2.40;;;;;;;5.03;96.95;99435.07;134193;1298;22840;-72
2023/12/20 11:40:23;;;;;;;5.50;3.10;;;;;;;5.13;96.91;99441.56;134266;1304;22429;-72
2023/12/20 11:43:35;;;;;;;8.10;3.00;;;;;;;5.42;97.19;99441.14;134219;1304;23097;-72
2023/12/20 11:46:36;;;;;;;7.70;2.60;;;;;;;5.50;96.24;99437.13;134161;1298;22379;-72
2023/12/20 11:49:36;;;;;;;8.70;3.10;;;;;;;5.48;95.47;99431.16;134280;1304;22446;-72
2023/12/20 11:52:37;;;;;;;7.70;3.30;;;;;;;5.44;94.91;99422.33;134235;1304;22424;-72
2023/12/20 11:55:42;;;;;;;8.90;3.90;;;;;;;5.43;94.94;99426.30;134227;1298;22986;-72
2023/12/20 11:58:48;;;;;;;6.60;3.50;;;;;;;5.45;94.57;99417.35;134249;1298;23126;-71
2023/12/20 12:01:52;;;;;;;8.10;3.80;;;;;;;5.50;95.19;99405.55;134172;1298;22481;-72
2023/12/20 12:04:56;;;;;;;6.70;2.90;;;;;;;5.56;94.36;99399.13;134271;1304;23149;-72
2023/12/20 12:08:02;;;;;;;6.30;3.20;;;;;;;5.60;94.60;99403.30;134237;1301;22335;-72
2023/12/20 12:11:05;;;;;;;6.60;3.10;;;;;;;5.64;94.40;99395.90;134225;1298;22474;-72
2023/12/20 12:14:10;;;;;;;8.90;3.00;;;;;;;5.63;93.92;99388.85;134243;1305;22506;-72
2023/12/20 12:17:12;;;;;;;11.30;3.90;;;;;;;5.61;93.32;99390.91;134262;1304;22493;-72
2023/12/20 12:20:13;;;;;;;7.90;3.20;;;;;;;5.64;93.54;99391.52;134257;1304;22284;-72
2023/12/20 12:23:37;;;;;;;;;;;;;;;;;;;;;
2023/12/20 12:26:38;;;;;;;6.50;3.20;;;;;;;5.61;92.23;99384.13;134103;1304;23141;-72
2023/12/20 12:29:39;;;;;;;6.80;2.60;;;;;;;5.57;91.90;99379.06;134166;1301;23095;-72
2023/12/20 12:32:49;;;;;;;5.30;2.10;;;;;;;5.53;90.80;99376.00;134232;1298;23271;-72
2023/12/20 12:35:50;;;;;;;4.10;2.60;;;;;;;5.48;91.24;99374.50;134211;1304;22377;-72
2023/12/20 12:38:50;;;;;;;;;;;;;;;5.44;90.98;99369.52;134272;1297;22454;-72
2023/12/20 12:41:52;;;;;;;3.60;2.30;;;;;;;5.37;89.68;99364.49;134272;1304;22369;-71
2023/12/20 12:44:58;;;;;;;7.60;2.90;;;;;;;5.34;90.41;99369.17;134239;1298;22366;-72
2023/12/20 12:47:59;;;;;;;5.90;2.30;;;;;;;5.33;89.30;99359.75;134144;1303;22378;-72
2023/12/20 12:50:59;;;;;;;;;;;;;;;5.29;89.72;99361.96;134278;1298;22449;-72
2023/12/20 12:54:00;;;;;;;8.20;2.10;;;;;;;5.26;89.67;99358.15;134252;1304;23084;-72
2023/12/20 12:57:02;;;;;;;4.20;1.80;;;;;;;5.22;89.55;99356.73;134264;1291;22430;-72
2023/12/20 13:00:03;;;;;;;2.80;1.80;;;;;;;5.21;89.05;99356.17;134224;1304;23627;-72
2023/12/20 13:03:27;;;;;;;6.00;2.80;;;;;;;5.20;89.36;99356.39;134216;1301;22329;-72
2023/12/20 13:06:38;;;;;;;3.60;2.20;;;;;;;5.19;89.12;99361.32;134243;1305;23550;-71
2023/12/20 13:09:39;;;;;;;6.60;1.80;;;;;;;5.18;89.07;99356.64;134102;1305;22381;-72
2023/12/20 13:12:40;;;;;;;4.50;2.00;;;;;;;5.17;89.10;99358.11;134150;1305;23054;-72
2023/12/20 13:15:41;;;;;;;5.90;2.50;;;;;;;5.15;89.06;99354.23;134242;1298;22863;-72
2023/12/20 13:18:44;;;;;;;3.80;1.70;;;;;;;5.15;89.10;99360.42;134250;1298;22208;-71
2023/12/20 13:21:45;;;;;;;;;;;;;;;5.12;88.99;99360.70;134269;1304;22445;-72
2023/12/20 13:25:09;;;;;;;6.80;3.00;;;;;;;5.11;89.77;99362.76;134146;1304;23601;-72
2023/12/20 13:28:10;;;;;;;4.60;2.40;;;;;;;5.10;89.70;99367.02;134098;1304;22382;-72
2023/12/20 13:31:11;;;;;;;5.60;2.60;;;;;;;5.12;89.81;99363.65;134208;1299;22309;-71
2023/12/20 13:34:14;;;;;;;;;;;;;;;5.16;89.24;99362.60;134276;1304;23637;-71
2023/12/20 13:37:15;;;;;;;4.30;2.00;;;;;;;5.18;89.29;99365.55;134249;1298;22933;-72
2023/12/20 13:40:17;;;;;;;4.60;1.90;;;;;;;5.18;88.38;99371.01;134238;1304;23132;-72
2023/12/20 13:43:20;;;;;;;4.50;1.80;;;;;;;5.19;88.73;99369.86;134233;1301;22385;-71
2023/12/20 13:46:24;;;;;;;6.30;2.10;;;;;;;5.19;88.47;99363.22;134246;1298;22493;-72
2023/12/20 13:49:25;;;;;;;5.50;2.20;;;;;;;5.18;88.02;99352.94;134249;1298;22383;-72
2023/12/20 13:52:26;;;;;;;3.20;1.90;;;;;;;5.17;87.98;99353.36;134228;1299;22489;-71
2023/12/20 13:55:27;;;;;;;;;;;;;;;5.15;87.45;99347.24;134276;1291;22472;-71
2023/12/20 13:58:30;;;;;;;7.40;2.80;;;;;;;5.14;88.05;99345.09;134246;1298;23081;-72
2023/12/20 14:01:31;;;;;;;;;;;;;;;5.13;88.02;99340.29;134229;1298;22452;-71
2023/12/20 14:04:32;;;;;;;7.40;2.70;;;;;;;5.11;87.49;99342.05;134234;1304;23282;-71
2023/12/20 14:07:33;;;;;;;7.70;2.60;;;;;;;5.08;87.57;99337.96;134237;1298;22209;-71
2023/12/20 14:10:34;;;;;;;8.60;3.10;;;;;;;5.08;87.48;99341.10;134214;1299;22320;-71
2023/12/20 14:13:39;;;;;;;6.30;2.60;;;;;;;5.07;87.11;99332.98;134225;1299;23369;-71
2023/12/20 14:16:56;;;;;;;8.90;3.00;;;;;;;5.08;86.42;99322.40;134166;1304;23571;-71
2023/12/20 14:20:24;;;;;;;6.90;2.90;;;;;;;5.09;86.39;99320.66;134228;1298;22409;-70
2023/12/20 14:23:27;;;;;;;7.90;2.70;;;;;;;5.09;86.49;99315.38;134175;1298;22366;-69
2023/12/20 14:26:28;;;;;;;8.50;2.50;;;;;;;5.09;86.30;99319.05;134210;1301;22253;-72
2023/12/20 14:29:29;;;;;;;10.00;3.50;;;;;;;5.09;85.66;99315.73;134228;1304;22264;-74
2023/12/20 14:32:34;;;;;;;11.40;3.50;;;;;;;5.10;85.73;99318.50;134225;1298;22439;-72
2023/12/20 14:35:38;;;;;;;5.20;2.70;;;;;;;5.10;85.59;99321.63;134058;1299;23091;-72
2023/12/20 14:38:49;;;;;;;5.60;2.30;;;;;;;5.10;84.88;99321.63;134222;1299;22386;-78
2023/12/20 14:41:51;;;;;;;5.30;2.00;;;;;;;5.11;84.92;99323.47;134241;1298;23173;-70
2023/12/20 14:44:57;;;;;;;5.10;1.70;;;;;;;5.11;84.13;99316.11;134067;1298;22390;-70
2023/12/20 14:47:58;;;;;;;9.10;2.60;;;;;;;5.12;84.27;99314.27;134040;1298;23581;-70